Aldrich, Minnesota
Current Conditions -  °F | °C
As of 8:13 AM on Friday 24 Oct 2014 (Local Time) from KSAZ Reporting Station
Haze Haze  
Wind Chill: 40°   Ceiling: Unl
Heat Index: 43°   Visibility: 1mi
Dew Point: 41°   Wind: 5mph
Humidity: 93%   Direction: 150°SSE
Pressure: 29.83"   Gusts: NA
Location:  46.38°N, 94.94°W
Report Text: KSAZ 241313Z AUTO 15004KT 1SM BR CLR 06/05 A2983 RMK AO2
Loading
Personal Weather Stations






























Interactive Weather Map
Tropical Storm Tracking
New forecast layout! Learn more

10-Day Weather Forecast

Advertisements
Track Severe Weather on mobile